sensor_id;sensor_type;location;lat;lon;timestamp;P1;durP1;ratioP1;P2;durP2;ratioP2
13244;SDS011;6689;53.400;12.486;2023-07-31T00:01:22;2.80;;;1.10;;
13244;SDS011;6689;53.400;12.486;2023-07-31T00:03:53;2.63;;;1.63;;
13244;SDS011;6689;53.400;12.486;2023-07-31T00:06:20;4.25;;;1.75;;
13244;SDS011;6689;53.400;12.486;2023-07-31T00:08:48;2.97;;;1.58;;
13244;SDS011;6689;53.400;12.486;2023-07-31T00:11:15;2.85;;;1.52;;
13244;SDS011;6689;53.400;12.486;2023-07-31T00:13:42;5.35;;;1.52;;
13244;SDS011;6689;53.400;12.486;2023-07-31T00:16:10;3.50;;;1.67;;
13244;SDS011;6689;53.400;12.486;2023-07-31T00:18:38;6.45;;;2.42;;
13244;SDS011;6689;53.400;12.486;2023-07-31T00:21:07;4.63;;;2.22;;
13244;SDS011;6689;53.400;12.486;2023-07-31T00:23:35;3.20;;;1.90;;
13244;SDS011;6689;53.400;12.486;2023-07-31T00:26:05;2.50;;;1.58;;
13244;SDS011;6689;53.400;12.486;2023-07-31T00:28:33;5.20;;;1.60;;
13244;SDS011;6689;53.400;12.486;2023-07-31T00:31:01;3.80;;;1.92;;
13244;SDS011;6689;53.400;12.486;2023-07-31T00:33:29;3.53;;;1.40;;
13244;SDS011;6689;53.400;12.486;2023-07-31T00:35:58;4.13;;;1.75;;
13244;SDS011;6689;53.400;12.486;2023-07-31T00:38:27;6.85;;;2.10;;
13244;SDS011;6689;53.400;12.486;2023-07-31T00:40:54;3.30;;;1.60;;
13244;SDS011;6689;53.400;12.486;2023-07-31T00:43:22;5.85;;;2.75;;
13244;SDS011;6689;53.400;12.486;2023-07-31T00:45:49;5.03;;;2.00;;
13244;SDS011;6689;53.400;12.486;2023-07-31T00:48:17;5.63;;;1.85;;
13244;SDS011;6689;53.400;12.486;2023-07-31T00:50:44;4.88;;;1.98;;
13244;SDS011;6689;53.400;12.486;2023-07-31T00:53:12;3.85;;;1.75;;
13244;SDS011;6689;53.400;12.486;2023-07-31T00:55:40;4.22;;;1.63;;
13244;SDS011;6689;53.400;12.486;2023-07-31T00:58:10;5.72;;;2.00;;
13244;SDS011;6689;53.400;12.486;2023-07-31T01:00:39;2.85;;;1.65;;
13244;SDS011;6689;53.400;12.486;2023-07-31T01:03:06;4.88;;;2.13;;
13244;SDS011;6689;53.400;12.486;2023-07-31T01:05:36;5.03;;;1.95;;
13244;SDS011;6689;53.400;12.486;2023-07-31T01:08:10;3.17;;;1.83;;
13244;SDS011;6689;53.400;12.486;2023-07-31T01:10:48;4.72;;;2.00;;
13244;SDS011;6689;53.400;12.486;2023-07-31T01:13:17;3.95;;;1.92;;
13244;SDS011;6689;53.400;12.486;2023-07-31T01:15:45;4.28;;;1.80;;
13244;SDS011;6689;53.400;12.486;2023-07-31T01:18:13;4.85;;;1.73;;
13244;SDS011;6689;53.400;12.486;2023-07-31T01:20:41;3.88;;;1.80;;
13244;SDS011;6689;53.400;12.486;2023-07-31T01:23:27;5.88;;;2.05;;
13244;SDS011;6689;53.400;12.486;2023-07-31T01:26:19;7.25;;;1.95;;
13244;SDS011;6689;53.400;12.486;2023-07-31T01:28:52;5.78;;;2.20;;
13244;SDS011;6689;53.400;12.486;2023-07-31T01:31:30;5.53;;;1.98;;
13244;SDS011;6689;53.400;12.486;2023-07-31T01:33:59;8.10;;;2.10;;
13244;SDS011;6689;53.400;12.486;2023-07-31T01:36:28;5.32;;;1.80;;
13244;SDS011;6689;53.400;12.486;2023-07-31T01:38:57;3.42;;;1.83;;
13244;SDS011;6689;53.400;12.486;2023-07-31T01:41:27;3.78;;;1.70;;
13244;SDS011;6689;53.400;12.486;2023-07-31T01:43:55;3.65;;;2.25;;
13244;SDS011;6689;53.400;12.486;2023-07-31T01:46:22;4.10;;;2.00;;
13244;SDS011;6689;53.400;12.486;2023-07-31T01:48:50;5.90;;;2.08;;
13244;SDS011;6689;53.400;12.486;2023-07-31T01:51:17;7.03;;;2.38;;
13244;SDS011;6689;53.400;12.486;2023-07-31T01:53:46;4.03;;;2.03;;
13244;SDS011;6689;53.400;12.486;2023-07-31T01:56:13;6.45;;;1.98;;
13244;SDS011;6689;53.400;12.486;2023-07-31T01:58:44;4.50;;;2.00;;
13244;SDS011;6689;53.400;12.486;2023-07-31T02:01:11;5.65;;;1.90;;
13244;SDS011;6689;53.400;12.486;2023-07-31T02:03:40;3.53;;;1.63;;
13244;SDS011;6689;53.400;12.486;2023-07-31T02:06:07;4.68;;;1.80;;
13244;SDS011;6689;53.400;12.486;2023-07-31T02:08:34;4.53;;;2.38;;
13244;SDS011;6689;53.400;12.486;2023-07-31T02:11:02;6.57;;;2.20;;
13244;SDS011;6689;53.400;12.486;2023-07-31T02:13:29;5.38;;;2.30;;
13244;SDS011;6689;53.400;12.486;2023-07-31T02:15:58;6.80;;;2.00;;
13244;SDS011;6689;53.400;12.486;2023-07-31T02:18:26;3.53;;;1.90;;
13244;SDS011;6689;53.400;12.486;2023-07-31T02:20:55;4.55;;;2.17;;
13244;SDS011;6689;53.400;12.486;2023-07-31T02:23:24;4.00;;;2.00;;
13244;SDS011;6689;53.400;12.486;2023-07-31T02:25:51;3.53;;;2.10;;
13244;SDS011;6689;53.400;12.486;2023-07-31T02:28:19;6.78;;;2.15;;
13244;SDS011;6689;53.400;12.486;2023-07-31T02:30:46;4.40;;;1.85;;
13244;SDS011;6689;53.400;12.486;2023-07-31T02:33:15;4.57;;;2.28;;
13244;SDS011;6689;53.400;12.486;2023-07-31T02:35:44;3.70;;;2.42;;
13244;SDS011;6689;53.400;12.486;2023-07-31T02:38:11;4.07;;;2.40;;
13244;SDS011;6689;53.400;12.486;2023-07-31T02:40:40;6.25;;;2.33;;
13244;SDS011;6689;53.400;12.486;2023-07-31T02:43:08;7.97;;;2.67;;
13244;SDS011;6689;53.400;12.486;2023-07-31T02:45:37;3.70;;;2.63;;
13244;SDS011;6689;53.400;12.486;2023-07-31T02:48:04;4.50;;;2.50;;
13244;SDS011;6689;53.400;12.486;2023-07-31T02:50:34;5.60;;;3.33;;
13244;SDS011;6689;53.400;12.486;2023-07-31T02:53:02;6.72;;;2.50;;
13244;SDS011;6689;53.400;12.486;2023-07-31T02:55:29;4.57;;;2.25;;
13244;SDS011;6689;53.400;12.486;2023-07-31T02:57:57;5.72;;;2.70;;
13244;SDS011;6689;53.400;12.486;2023-07-31T03:00:25;5.50;;;2.70;;
13244;SDS011;6689;53.400;12.486;2023-07-31T03:02:54;4.82;;;2.20;;
13244;SDS011;6689;53.400;12.486;2023-07-31T03:05:21;4.22;;;2.33;;
13244;SDS011;6689;53.400;12.486;2023-07-31T03:07:50;4.32;;;2.83;;
13244;SDS011;6689;53.400;12.486;2023-07-31T03:10:17;5.45;;;2.70;;
13244;SDS011;6689;53.400;12.486;2023-07-31T03:12:48;10.35;;;3.05;;
13244;SDS011;6689;53.400;12.486;2023-07-31T03:15:16;4.35;;;2.30;;
13244;SDS011;6689;53.400;12.486;2023-07-31T03:17:43;8.23;;;3.47;;
13244;SDS011;6689;53.400;12.486;2023-07-31T03:20:11;5.90;;;2.97;;
13244;SDS011;6689;53.400;12.486;2023-07-31T03:22:38;4.60;;;2.60;;
13244;SDS011;6689;53.400;12.486;2023-07-31T03:25:09;12.85;;;2.78;;
13244;SDS011;6689;53.400;12.486;2023-07-31T03:27:37;6.00;;;2.65;;
13244;SDS011;6689;53.400;12.486;2023-07-31T03:30:06;4.47;;;2.70;;
13244;SDS011;6689;53.400;12.486;2023-07-31T03:32:34;7.15;;;2.72;;
13244;SDS011;6689;53.400;12.486;2023-07-31T03:35:03;7.32;;;2.58;;
13244;SDS011;6689;53.400;12.486;2023-07-31T03:37:31;6.95;;;2.40;;
13244;SDS011;6689;53.400;12.486;2023-07-31T03:39:59;5.47;;;2.60;;
13244;SDS011;6689;53.400;12.486;2023-07-31T03:42:28;9.52;;;2.65;;
13244;SDS011;6689;53.400;12.486;2023-07-31T03:44:56;4.32;;;2.30;;
13244;SDS011;6689;53.400;12.486;2023-07-31T03:47:23;7.70;;;2.78;;
13244;SDS011;6689;53.400;12.486;2023-07-31T03:49:51;5.22;;;2.58;;
13244;SDS011;6689;53.400;12.486;2023-07-31T03:52:19;4.43;;;2.25;;
13244;SDS011;6689;53.400;12.486;2023-07-31T03:54:46;8.88;;;2.40;;
13244;SDS011;6689;53.400;12.486;2023-07-31T03:57:14;12.27;;;3.10;;
13244;SDS011;6689;53.400;12.486;2023-07-31T03:59:43;5.38;;;2.17;;
13244;SDS011;6689;53.400;12.486;2023-07-31T04:02:13;4.30;;;2.05;;
13244;SDS011;6689;53.400;12.486;2023-07-31T04:04:41;5.05;;;2.35;;
13244;SDS011;6689;53.400;12.486;2023-07-31T04:07:10;8.18;;;2.35;;
13244;SDS011;6689;53.400;12.486;2023-07-31T04:09:37;4.25;;;1.90;;
13244;SDS011;6689;53.400;12.486;2023-07-31T04:12:07;6.32;;;2.53;;
13244;SDS011;6689;53.400;12.486;2023-07-31T04:14:35;5.78;;;2.30;;
13244;SDS011;6689;53.400;12.486;2023-07-31T04:17:03;4.55;;;2.38;;
13244;SDS011;6689;53.400;12.486;2023-07-31T04:19:33;4.43;;;2.45;;
13244;SDS011;6689;53.400;12.486;2023-07-31T04:22:01;6.40;;;2.20;;
13244;SDS011;6689;53.400;12.486;2023-07-31T04:24:28;4.57;;;2.30;;
13244;SDS011;6689;53.400;12.486;2023-07-31T04:26:59;3.72;;;2.30;;
13244;SDS011;6689;53.400;12.486;2023-07-31T04:29:28;4.05;;;2.15;;
13244;SDS011;6689;53.400;12.486;2023-07-31T04:31:56;4.28;;;2.15;;
13244;SDS011;6689;53.400;12.486;2023-07-31T04:34:29;4.80;;;2.15;;
13244;SDS011;6689;53.400;12.486;2023-07-31T04:36:58;6.65;;;2.33;;
13244;SDS011;6689;53.400;12.486;2023-07-31T04:39:26;4.20;;;1.80;;
13244;SDS011;6689;53.400;12.486;2023-07-31T04:41:56;4.28;;;2.30;;
13244;SDS011;6689;53.400;12.486;2023-07-31T04:44:23;3.70;;;1.95;;
13244;SDS011;6689;53.400;12.486;2023-07-31T04:46:52;3.88;;;2.20;;
13244;SDS011;6689;53.400;12.486;2023-07-31T04:49:19;3.65;;;1.98;;
13244;SDS011;6689;53.400;12.486;2023-07-31T04:51:49;4.95;;;2.00;;
13244;SDS011;6689;53.400;12.486;2023-07-31T04:54:17;5.75;;;2.47;;
13244;SDS011;6689;53.400;12.486;2023-07-31T04:56:45;6.18;;;2.28;;
13244;SDS011;6689;53.400;12.486;2023-07-31T04:59:13;3.75;;;2.30;;
13244;SDS011;6689;53.400;12.486;2023-07-31T05:01:42;3.92;;;2.30;;
13244;SDS011;6689;53.400;12.486;2023-07-31T05:04:12;4.15;;;2.13;;
13244;SDS011;6689;53.400;12.486;2023-07-31T05:06:40;8.13;;;2.40;;
13244;SDS011;6689;53.400;12.486;2023-07-31T05:09:10;10.65;;;2.45;;
13244;SDS011;6689;53.400;12.486;2023-07-31T05:11:37;5.32;;;2.33;;
13244;SDS011;6689;53.400;12.486;2023-07-31T05:14:05;8.20;;;2.63;;
13244;SDS011;6689;53.400;12.486;2023-07-31T05:16:33;5.93;;;2.00;;
13244;SDS011;6689;53.400;12.486;2023-07-31T05:19:01;5.32;;;2.10;;
13244;SDS011;6689;53.400;12.486;2023-07-31T05:21:28;4.55;;;2.65;;
13244;SDS011;6689;53.400;12.486;2023-07-31T05:23:57;6.47;;;2.97;;
13244;SDS011;6689;53.400;12.486;2023-07-31T05:26:29;5.50;;;1.90;;
13244;SDS011;6689;53.400;12.486;2023-07-31T05:28:57;5.38;;;2.58;;
13244;SDS011;6689;53.400;12.486;2023-07-31T05:31:24;6.57;;;2.47;;
13244;SDS011;6689;53.400;12.486;2023-07-31T05:33:54;3.30;;;2.15;;
13244;SDS011;6689;53.400;12.486;2023-07-31T05:36:21;6.03;;;2.53;;
13244;SDS011;6689;53.400;12.486;2023-07-31T05:38:49;5.30;;;2.85;;
13244;SDS011;6689;53.400;12.486;2023-07-31T05:41:16;6.22;;;2.30;;
13244;SDS011;6689;53.400;12.486;2023-07-31T05:43:45;7.68;;;2.45;;
13244;SDS011;6689;53.400;12.486;2023-07-31T05:46:12;5.05;;;2.40;;
13244;SDS011;6689;53.400;12.486;2023-07-31T05:48:40;7.53;;;2.42;;
13244;SDS011;6689;53.400;12.486;2023-07-31T05:51:08;3.13;;;2.00;;
13244;SDS011;6689;53.400;12.486;2023-07-31T05:53:36;5.60;;;2.78;;
13244;SDS011;6689;53.400;12.486;2023-07-31T05:56:05;4.75;;;2.15;;
13244;SDS011;6689;53.400;12.486;2023-07-31T05:58:33;7.68;;;2.63;;
13244;SDS011;6689;53.400;12.486;2023-07-31T06:01:02;4.93;;;2.40;;
13244;SDS011;6689;53.400;12.486;2023-07-31T06:03:30;6.40;;;2.45;;
13244;SDS011;6689;53.400;12.486;2023-07-31T06:05:57;6.70;;;2.55;;
13244;SDS011;6689;53.400;12.486;2023-07-31T06:08:25;5.20;;;2.17;;
13244;SDS011;6689;53.400;12.486;2023-07-31T06:10:52;7.15;;;2.38;;
13244;SDS011;6689;53.400;12.486;2023-07-31T06:13:20;4.15;;;2.38;;
13244;SDS011;6689;53.400;12.486;2023-07-31T06:15:47;4.75;;;2.15;;
13244;SDS011;6689;53.400;12.486;2023-07-31T06:18:19;7.72;;;3.03;;
13244;SDS011;6689;53.400;12.486;2023-07-31T06:20:46;6.47;;;2.35;;
13244;SDS011;6689;53.400;12.486;2023-07-31T06:23:18;5.47;;;2.40;;
13244;SDS011;6689;53.400;12.486;2023-07-31T06:25:59;5.30;;;2.22;;
13244;SDS011;6689;53.400;12.486;2023-07-31T06:28:27;4.13;;;2.33;;
13244;SDS011;6689;53.400;12.486;2023-07-31T06:30:58;6.25;;;2.45;;
13244;SDS011;6689;53.400;12.486;2023-07-31T06:33:27;5.75;;;2.85;;
13244;SDS011;6689;53.400;12.486;2023-07-31T06:35:55;3.30;;;2.10;;
13244;SDS011;6689;53.400;12.486;2023-07-31T06:38:23;6.88;;;2.42;;
13244;SDS011;6689;53.400;12.486;2023-07-31T06:40:53;4.88;;;2.50;;
13244;SDS011;6689;53.400;12.486;2023-07-31T06:43:20;4.85;;;2.25;;
13244;SDS011;6689;53.400;12.486;2023-07-31T06:45:48;3.08;;;2.15;;
13244;SDS011;6689;53.400;12.486;2023-07-31T06:48:16;7.90;;;2.80;;
13244;SDS011;6689;53.400;12.486;2023-07-31T06:50:46;5.93;;;2.83;;
13244;SDS011;6689;53.400;12.486;2023-07-31T06:53:14;3.10;;;2.05;;
13244;SDS011;6689;53.400;12.486;2023-07-31T06:55:41;7.03;;;2.40;;
13244;SDS011;6689;53.400;12.486;2023-07-31T06:58:08;5.00;;;2.10;;
13244;SDS011;6689;53.400;12.486;2023-07-31T07:00:36;4.47;;;2.10;;
13244;SDS011;6689;53.400;12.486;2023-07-31T07:03:03;4.38;;;2.33;;
13244;SDS011;6689;53.400;12.486;2023-07-31T07:05:31;4.97;;;2.47;;
13244;SDS011;6689;53.400;12.486;2023-07-31T07:08:01;3.47;;;2.38;;
13244;SDS011;6689;53.400;12.486;2023-07-31T07:10:28;4.82;;;2.53;;
13244;SDS011;6689;53.400;12.486;2023-07-31T07:12:55;3.72;;;1.80;;
13244;SDS011;6689;53.400;12.486;2023-07-31T07:15:23;5.45;;;2.13;;
13244;SDS011;6689;53.400;12.486;2023-07-31T07:17:50;3.83;;;2.58;;
13244;SDS011;6689;53.400;12.486;2023-07-31T07:20:17;2.22;;;1.83;;
13244;SDS011;6689;53.400;12.486;2023-07-31T07:22:46;4.82;;;1.80;;
13244;SDS011;6689;53.400;12.486;2023-07-31T07:25:16;3.90;;;2.05;;
13244;SDS011;6689;53.400;12.486;2023-07-31T07:27:44;2.92;;;2.30;;
13244;SDS011;6689;53.400;12.486;2023-07-31T07:30:11;3.17;;;2.15;;
13244;SDS011;6689;53.400;12.486;2023-07-31T07:32:39;4.70;;;2.42;;
13244;SDS011;6689;53.400;12.486;2023-07-31T07:35:08;6.50;;;1.75;;
13244;SDS011;6689;53.400;12.486;2023-07-31T07:37:37;3.55;;;1.80;;
13244;SDS011;6689;53.400;12.486;2023-07-31T07:40:05;3.88;;;1.80;;
13244;SDS011;6689;53.400;12.486;2023-07-31T07:42:35;3.03;;;1.80;;
13244;SDS011;6689;53.400;12.486;2023-07-31T07:45:02;2.97;;;1.73;;
13244;SDS011;6689;53.400;12.486;2023-07-31T07:47:30;3.75;;;1.50;;
13244;SDS011;6689;53.400;12.486;2023-07-31T07:50:02;4.47;;;2.00;;
13244;SDS011;6689;53.400;12.486;2023-07-31T07:52:29;7.25;;;1.85;;
13244;SDS011;6689;53.400;12.486;2023-07-31T07:54:57;2.83;;;1.48;;
13244;SDS011;6689;53.400;12.486;2023-07-31T07:57:25;13.07;;;3.17;;
13244;SDS011;6689;53.400;12.486;2023-07-31T07:59:56;2.22;;;1.70;;
13244;SDS011;6689;53.400;12.486;2023-07-31T08:02:25;3.55;;;1.40;;
13244;SDS011;6689;53.400;12.486;2023-07-31T08:04:52;2.97;;;1.67;;
13244;SDS011;6689;53.400;12.486;2023-07-31T08:07:20;5.05;;;2.22;;
13244;SDS011;6689;53.400;12.486;2023-07-31T08:09:47;2.72;;;1.45;;
13244;SDS011;6689;53.400;12.486;2023-07-31T08:12:15;5.15;;;1.58;;
13244;SDS011;6689;53.400;12.486;2023-07-31T08:14:42;5.22;;;1.40;;
13244;SDS011;6689;53.400;12.486;2023-07-31T08:17:11;4.55;;;1.30;;
13244;SDS011;6689;53.400;12.486;2023-07-31T08:19:40;2.63;;;1.50;;
13244;SDS011;6689;53.400;12.486;2023-07-31T08:22:11;6.45;;;1.77;;
13244;SDS011;6689;53.400;12.486;2023-07-31T08:24:39;3.00;;;1.48;;
13244;SDS011;6689;53.400;12.486;2023-07-31T08:27:07;2.95;;;1.83;;
13244;SDS011;6689;53.400;12.486;2023-07-31T08:29:35;3.72;;;1.70;;
13244;SDS011;6689;53.400;12.486;2023-07-31T08:32:03;2.70;;;1.30;;
13244;SDS011;6689;53.400;12.486;2023-07-31T08:34:32;2.55;;;1.60;;
13244;SDS011;6689;53.400;12.486;2023-07-31T08:37:01;2.15;;;1.40;;
13244;SDS011;6689;53.400;12.486;2023-07-31T08:39:29;4.78;;;1.42;;
13244;SDS011;6689;53.400;12.486;2023-07-31T08:41:59;4.07;;;1.73;;
13244;SDS011;6689;53.400;12.486;2023-07-31T08:44:27;2.72;;;1.45;;
13244;SDS011;6689;53.400;12.486;2023-07-31T08:46:57;3.03;;;1.80;;
13244;SDS011;6689;53.400;12.486;2023-07-31T08:49:26;8.48;;;2.25;;
13244;SDS011;6689;53.400;12.486;2023-07-31T08:51:56;4.45;;;2.00;;
13244;SDS011;6689;53.400;12.486;2023-07-31T08:54:24;4.93;;;2.60;;
13244;SDS011;6689;53.400;12.486;2023-07-31T08:56:56;4.43;;;1.65;;
13244;SDS011;6689;53.400;12.486;2023-07-31T08:59:25;8.45;;;2.63;;
13244;SDS011;6689;53.400;12.486;2023-07-31T09:01:54;5.40;;;2.00;;
13244;SDS011;6689;53.400;12.486;2023-07-31T09:04:24;8.13;;;3.75;;
13244;SDS011;6689;53.400;12.486;2023-07-31T09:06:54;5.60;;;2.35;;
13244;SDS011;6689;53.400;12.486;2023-07-31T09:09:28;2.92;;;1.40;;
13244;SDS011;6689;53.400;12.486;2023-07-31T09:11:56;3.47;;;1.80;;
13244;SDS011;6689;53.400;12.486;2023-07-31T09:14:25;2.95;;;1.55;;
13244;SDS011;6689;53.400;12.486;2023-07-31T09:16:53;3.00;;;1.70;;
13244;SDS011;6689;53.400;12.486;2023-07-31T09:19:27;2.35;;;1.23;;
13244;SDS011;6689;53.400;12.486;2023-07-31T09:22:09;2.53;;;1.23;;
13244;SDS011;6689;53.400;12.486;2023-07-31T09:24:37;4.43;;;1.98;;
13244;SDS011;6689;53.400;12.486;2023-07-31T09:27:05;2.08;;;1.33;;
13244;SDS011;6689;53.400;12.486;2023-07-31T09:29:33;4.18;;;1.50;;
13244;SDS011;6689;53.400;12.486;2023-07-31T09:32:02;2.15;;;1.10;;
13244;SDS011;6689;53.400;12.486;2023-07-31T09:34:36;2.28;;;1.13;;
13244;SDS011;6689;53.400;12.486;2023-07-31T09:37:09;3.03;;;1.43;;
13244;SDS011;6689;53.400;12.486;2023-07-31T09:39:45;2.03;;;1.27;;
13244;SDS011;6689;53.400;12.486;2023-07-31T09:42:13;2.20;;;1.50;;
13244;SDS011;6689;53.400;12.486;2023-07-31T09:44:40;6.28;;;2.08;;
13244;SDS011;6689;53.400;12.486;2023-07-31T09:47:16;2.58;;;1.40;;
13244;SDS011;6689;53.400;12.486;2023-07-31T09:49:50;1.90;;;1.40;;
13244;SDS011;6689;53.400;12.486;2023-07-31T09:52:19;2.17;;;1.38;;
13244;SDS011;6689;53.400;12.486;2023-07-31T09:54:47;1.85;;;1.30;;
13244;SDS011;6689;53.400;12.486;2023-07-31T09:57:15;1.70;;;1.25;;
13244;SDS011;6689;53.400;12.486;2023-07-31T09:59:48;1.63;;;1.20;;
13244;SDS011;6689;53.400;12.486;2023-07-31T10:02:20;2.30;;;1.02;;
13244;SDS011;6689;53.400;12.486;2023-07-31T10:04:49;1.10;;;0.85;;
13244;SDS011;6689;53.400;12.486;2023-07-31T10:07:19;2.03;;;1.30;;
13244;SDS011;6689;53.400;12.486;2023-07-31T10:09:49;1.70;;;1.00;;
13244;SDS011;6689;53.400;12.486;2023-07-31T10:12:19;1.20;;;1.10;;
13244;SDS011;6689;53.400;12.486;2023-07-31T10:14:48;1.77;;;1.25;;
13244;SDS011;6689;53.400;12.486;2023-07-31T10:17:18;1.48;;;0.85;;
13244;SDS011;6689;53.400;12.486;2023-07-31T10:19:48;1.52;;;0.80;;
13244;SDS011;6689;53.400;12.486;2023-07-31T10:22:16;1.85;;;1.20;;
13244;SDS011;6689;53.400;12.486;2023-07-31T10:24:46;2.17;;;1.17;;
13244;SDS011;6689;53.400;12.486;2023-07-31T10:27:15;1.40;;;1.15;;
13244;SDS011;6689;53.400;12.486;2023-07-31T10:29:43;1.70;;;0.80;;
13244;SDS011;6689;53.400;12.486;2023-07-31T10:32:13;3.28;;;1.20;;
13244;SDS011;6689;53.400;12.486;2023-07-31T10:34:43;1.42;;;0.80;;
13244;SDS011;6689;53.400;12.486;2023-07-31T10:37:25;1.55;;;1.00;;
13244;SDS011;6689;53.400;12.486;2023-07-31T10:39:55;1.73;;;0.73;;
13244;SDS011;6689;53.400;12.486;2023-07-31T10:42:29;0.70;;;0.50;;
13244;SDS011;6689;53.400;12.486;2023-07-31T10:45:01;0.77;;;0.63;;
13244;SDS011;6689;53.400;12.486;2023-07-31T10:47:31;0.50;;;0.50;;
13244;SDS011;6689;53.400;12.486;2023-07-31T10:50:16;1.00;;;0.88;;
13244;SDS011;6689;53.400;12.486;2023-07-31T10:52:50;1.92;;;0.70;;
13244;SDS011;6689;53.400;12.486;2023-07-31T10:55:25;1.42;;;0.90;;
13244;SDS011;6689;53.400;12.486;2023-07-31T10:57:55;1.13;;;0.95;;
13244;SDS011;6689;53.400;12.486;2023-07-31T11:00:33;1.40;;;1.25;;
13244;SDS011;6689;53.400;12.486;2023-07-31T11:03:03;2.65;;;1.10;;
13244;SDS011;6689;53.400;12.486;2023-07-31T11:05:45;1.58;;;1.20;;
13244;SDS011;6689;53.400;12.486;2023-07-31T11:08:22;1.08;;;0.90;;
13244;SDS011;6689;53.400;12.486;2023-07-31T11:11:04;1.27;;;1.08;;
13244;SDS011;6689;53.400;12.486;2023-07-31T11:13:39;1.33;;;0.65;;
13244;SDS011;6689;53.400;12.486;2023-07-31T11:16:07;1.42;;;0.98;;
13244;SDS011;6689;53.400;12.486;2023-07-31T11:18:38;0.60;;;0.60;;
13244;SDS011;6689;53.400;12.486;2023-07-31T11:21:07;0.70;;;0.50;;
13244;SDS011;6689;53.400;12.486;2023-07-31T11:23:38;0.98;;;0.80;;
13244;SDS011;6689;53.400;12.486;2023-07-31T11:26:05;0.73;;;0.60;;
13244;SDS011;6689;53.400;12.486;2023-07-31T11:28:35;0.85;;;0.80;;
13244;SDS011;6689;53.400;12.486;2023-07-31T11:31:03;1.33;;;1.00;;
13244;SDS011;6689;53.400;12.486;2023-07-31T11:33:36;1.20;;;0.90;;
13244;SDS011;6689;53.400;12.486;2023-07-31T11:36:03;2.05;;;1.10;;
13244;SDS011;6689;53.400;12.486;2023-07-31T11:38:31;2.63;;;1.98;;
13244;SDS011;6689;53.400;12.486;2023-07-31T11:41:02;2.40;;;1.98;;
13244;SDS011;6689;53.400;12.486;2023-07-31T11:43:35;2.83;;;2.42;;
13244;SDS011;6689;53.400;12.486;2023-07-31T11:46:03;3.95;;;2.70;;
13244;SDS011;6689;53.400;12.486;2023-07-31T11:48:32;7.07;;;3.35;;
13244;SDS011;6689;53.400;12.486;2023-07-31T11:51:02;5.43;;;3.28;;
13244;SDS011;6689;53.400;12.486;2023-07-31T11:53:31;5.70;;;3.80;;
13244;SDS011;6689;53.400;12.486;2023-07-31T11:56:04;4.88;;;3.90;;
13244;SDS011;6689;53.400;12.486;2023-07-31T11:58:33;5.38;;;4.35;;
13244;SDS011;6689;53.400;12.486;2023-07-31T12:01:02;9.38;;;4.90;;
13244;SDS011;6689;53.400;12.486;2023-07-31T12:03:30;6.97;;;5.03;;
13244;SDS011;6689;53.400;12.486;2023-07-31T12:05:59;9.77;;;4.60;;
13244;SDS011;6689;53.400;12.486;2023-07-31T12:08:30;11.27;;;5.32;;
13244;SDS011;6689;53.400;12.486;2023-07-31T12:11:03;8.48;;;5.00;;
13244;SDS011;6689;53.400;12.486;2023-07-31T12:13:31;7.32;;;5.10;;
13244;SDS011;6689;53.400;12.486;2023-07-31T12:16:01;6.82;;;5.03;;
13244;SDS011;6689;53.400;12.486;2023-07-31T12:18:30;7.35;;;4.82;;
13244;SDS011;6689;53.400;12.486;2023-07-31T12:21:01;6.72;;;5.40;;
13244;SDS011;6689;53.400;12.486;2023-07-31T12:23:31;9.90;;;5.93;;
13244;SDS011;6689;53.400;12.486;2023-07-31T12:26:04;7.90;;;6.35;;
13244;SDS011;6689;53.400;12.486;2023-07-31T12:28:34;9.18;;;6.03;;
13244;SDS011;6689;53.400;12.486;2023-07-31T12:31:03;10.95;;;5.97;;
13244;SDS011;6689;53.400;12.486;2023-07-31T12:33:31;9.23;;;6.00;;
13244;SDS011;6689;53.400;12.486;2023-07-31T12:36:00;8.77;;;5.22;;
13244;SDS011;6689;53.400;12.486;2023-07-31T12:38:29;7.93;;;4.97;;
13244;SDS011;6689;53.400;12.486;2023-07-31T12:40:56;11.80;;;5.25;;
13244;SDS011;6689;53.400;12.486;2023-07-31T12:43:26;9.30;;;6.03;;
13244;SDS011;6689;53.400;12.486;2023-07-31T12:45:53;9.25;;;5.53;;
13244;SDS011;6689;53.400;12.486;2023-07-31T12:48:21;8.10;;;4.80;;
13244;SDS011;6689;53.400;12.486;2023-07-31T12:50:49;7.95;;;5.10;;
13244;SDS011;6689;53.400;12.486;2023-07-31T12:53:17;8.05;;;5.07;;
13244;SDS011;6689;53.400;12.486;2023-07-31T12:55:44;11.85;;;6.55;;
13244;SDS011;6689;53.400;12.486;2023-07-31T12:58:14;9.63;;;6.05;;
13244;SDS011;6689;53.400;12.486;2023-07-31T13:00:43;11.50;;;6.20;;
13244;SDS011;6689;53.400;12.486;2023-07-31T13:03:10;7.55;;;6.07;;
13244;SDS011;6689;53.400;12.486;2023-07-31T13:05:38;9.30;;;6.15;;
13244;SDS011;6689;53.400;12.486;2023-07-31T13:08:12;7.75;;;6.07;;
13244;SDS011;6689;53.400;12.486;2023-07-31T13:10:41;15.18;;;7.57;;
13244;SDS011;6689;53.400;12.486;2023-07-31T13:13:09;10.38;;;7.05;;
13244;SDS011;6689;53.400;12.486;2023-07-31T13:15:37;11.40;;;7.13;;
13244;SDS011;6689;53.400;12.486;2023-07-31T13:18:05;10.80;;;7.35;;
13244;SDS011;6689;53.400;12.486;2023-07-31T13:20:33;11.52;;;6.47;;
13244;SDS011;6689;53.400;12.486;2023-07-31T13:23:00;8.55;;;6.95;;
13244;SDS011;6689;53.400;12.486;2023-07-31T13:25:28;8.57;;;5.82;;
13244;SDS011;6689;53.400;12.486;2023-07-31T13:27:57;5.82;;;4.80;;
13244;SDS011;6689;53.400;12.486;2023-07-31T13:30:24;7.00;;;4.47;;
13244;SDS011;6689;53.400;12.486;2023-07-31T13:32:52;5.95;;;4.35;;
13244;SDS011;6689;53.400;12.486;2023-07-31T13:35:21;5.22;;;4.28;;
13244;SDS011;6689;53.400;12.486;2023-07-31T13:37:49;7.68;;;4.38;;
13244;SDS011;6689;53.400;12.486;2023-07-31T13:40:17;4.60;;;3.58;;
13244;SDS011;6689;53.400;12.486;2023-07-31T13:42:45;4.25;;;3.33;;
13244;SDS011;6689;53.400;12.486;2023-07-31T13:45:13;4.85;;;3.60;;
13244;SDS011;6689;53.400;12.486;2023-07-31T13:47:42;8.13;;;3.22;;
13244;SDS011;6689;53.400;12.486;2023-07-31T13:50:10;5.20;;;3.72;;
13244;SDS011;6689;53.400;12.486;2023-07-31T13:52:39;4.55;;;3.40;;
13244;SDS011;6689;53.400;12.486;2023-07-31T13:55:07;6.60;;;3.53;;
13244;SDS011;6689;53.400;12.486;2023-07-31T13:57:35;4.38;;;2.92;;
13244;SDS011;6689;53.400;12.486;2023-07-31T14:00:03;5.10;;;3.58;;
13244;SDS011;6689;53.400;12.486;2023-07-31T14:02:31;5.63;;;3.90;;
13244;SDS011;6689;53.400;12.486;2023-07-31T14:04:59;4.45;;;3.30;;
13244;SDS011;6689;53.400;12.486;2023-07-31T14:07:27;5.13;;;3.40;;
13244;SDS011;6689;53.400;12.486;2023-07-31T14:09:57;4.65;;;3.58;;
13244;SDS011;6689;53.400;12.486;2023-07-31T14:12:25;7.55;;;3.67;;
13244;SDS011;6689;53.400;12.486;2023-07-31T14:14:52;6.55;;;3.97;;
13244;SDS011;6689;53.400;12.486;2023-07-31T14:17:20;7.20;;;3.53;;
13244;SDS011;6689;53.400;12.486;2023-07-31T14:19:48;5.60;;;3.60;;
13244;SDS011;6689;53.400;12.486;2023-07-31T14:22:15;5.07;;;3.50;;
13244;SDS011;6689;53.400;12.486;2023-07-31T14:24:55;8.50;;;3.90;;
13244;SDS011;6689;53.400;12.486;2023-07-31T14:27:28;5.45;;;3.35;;
13244;SDS011;6689;53.400;12.486;2023-07-31T14:29:55;5.47;;;3.35;;
13244;SDS011;6689;53.400;12.486;2023-07-31T14:32:22;5.53;;;3.67;;
13244;SDS011;6689;53.400;12.486;2023-07-31T14:34:50;5.45;;;4.32;;
13244;SDS011;6689;53.400;12.486;2023-07-31T14:37:18;3.80;;;3.30;;
13244;SDS011;6689;53.400;12.486;2023-07-31T14:39:45;6.82;;;3.78;;
13244;SDS011;6689;53.400;12.486;2023-07-31T14:42:14;5.30;;;3.40;;
13244;SDS011;6689;53.400;12.486;2023-07-31T14:44:46;4.22;;;3.45;;
13244;SDS011;6689;53.400;12.486;2023-07-31T14:47:13;4.20;;;3.00;;
13244;SDS011;6689;53.400;12.486;2023-07-31T14:49:40;3.88;;;3.30;;
13244;SDS011;6689;53.400;12.486;2023-07-31T14:52:08;4.93;;;3.03;;
13244;SDS011;6689;53.400;12.486;2023-07-31T14:54:35;4.72;;;3.67;;
13244;SDS011;6689;53.400;12.486;2023-07-31T14:57:03;4.93;;;3.35;;
13244;SDS011;6689;53.400;12.486;2023-07-31T14:59:31;4.68;;;3.33;;